CSCL Sydney — VRBH9 — position and weather

sailwx.info

Track history (hours):
 
Tides and Currents Weather Stations Pressure Air Temp Water Temp Dewpoint Dewpoint Depression Visibility Wind Speed Wind Dir Waves Ship Positions

CSCL Sydney (Hong Kong)

Last reported at 2017-Oct-17 08:17 UTC. Time now 2017-Oct-20 14:10 UTC.
Position N 01°16' E 103°50'.

Type: Ship (hazmat cat A). MMSI: 477020200.

Date/timePositionNaut miles runAvg speedWind from/ knotsBaromVisibWave heightAir tempDewpointWater temp
2017-Oct-17 08:17N 01°16' E 103°50'0 0.5
2017-Oct-17 07:54N 01°16' E 103°50'0 0.0
2017-Oct-17 07:25N 01°16' E 103°50'0 0.0
2017-Oct-17 06:57N 01°16' E 103°50'0 0.0
2017-Oct-17 06:29N 01°16' E 103°50'18 2.1
2017-Oct-16 21:54N 01°16' E 104°08'512.6
2017-Oct-16 21:30N 01°15' E 104°03'612.9
2017-Oct-16 21:00N 01°13' E 103°57'5 9.8
2017-Oct-16 20:30N 01°14' E 103°52'2 4.8
2017-Oct-16 20:00N 01°16' E 103°50'0 0.0
2017-Oct-16 19:30N 01°16' E 103°50'0 0.0
2017-Oct-16 18:57N 01°16' E 103°50'0 0.0
2017-Oct-16 18:30N 01°16' E 103°50'0 0.0
2017-Oct-16 18:00N 01°16' E 103°50'0 0.0
2017-Oct-16 17:30N 01°16' E 103°50'0 0.0
2017-Oct-16 17:00N 01°16' E 103°50'0 0.0
2017-Oct-16 16:30N 01°16' E 103°50'0 0.0
2017-Oct-16 16:00N 01°16' E 103°50'0 0.0
2017-Oct-16 15:30N 01°16' E 103°50'0 0.0
2017-Oct-16 15:00N 01°16' E 103°50'0 0.0
2017-Oct-16 14:00N 01°16' E 103°50'0 0.0
2017-Oct-16 13:30N 01°16' E 103°50'0 0.0
2017-Oct-16 13:00N 01°16' E 103°50'0 0.0
2017-Oct-16 12:30N 01°16' E 103°50'0 0.0
2017-Oct-16 12:00N 01°16' E 103°50'0 0.0
2017-Oct-16 11:30N 01°16' E 103°50'0 0.0
2017-Oct-16 11:00N 01°16' E 103°50'0 0.0
2017-Oct-16 10:30N 01°16' E 103°50'1 1.2
2017-Oct-16 10:00N 01°16' E 103°51'1 2.4
2017-Oct-16 09:30N 01°15' E 103°52'3 5.8
2017-Oct-16 09:00N 01°13' E 103°53'2 4.2
2017-Oct-16 08:30N 01°11' E 103°51'510.6
2017-Oct-16 08:00N 01°09' E 103°46'612.0
2017-Oct-16 07:30N 01°04' E 103°42'510.8
2017-Oct-16 07:00N 01°04' E 103°37'611.8
2017-Oct-16 06:30N 01°08' E 103°32'4 7.6
2017-Oct-16 06:00N 01°10' E 103°29'0 0.5
2017-Oct-16 05:30N 01°10' E 103°29'1 1.5
2017-Oct-16 05:00N 01°11' E 103°28'4 7.7
2017-Oct-16 04:30N 01°12' E 103°25'  
Track history (hours):
 
Tides and Currents Weather Stations Pressure Air Temp Water Temp Dewpoint Dewpoint Depression Visibility Wind Speed Wind Dir Waves Ship Positions

CSCL Sydney (Hong Kong)

Last reported at 2017-Oct-17 08:17 UTC. Time now 2017-Oct-20 14:10 UTC.
Position N 01°16' E 103°50'.

Type: Ship (hazmat cat A). MMSI: 477020200.

Date/timePositionNaut miles runAvg speedWind from/ knotsBaromVisibWave heightAir tempDewpointWater temp
2017-Oct-17 08:17N 01°16' E 103°50'0 0.5
2017-Oct-17 07:54N 01°16' E 103°50'0 0.0
2017-Oct-17 07:25N 01°16' E 103°50'0 0.0
2017-Oct-17 06:57N 01°16' E 103°50'0 0.0
2017-Oct-17 06:29N 01°16' E 103°50'18 2.1
2017-Oct-16 21:54N 01°16' E 104°08'512.6
2017-Oct-16 21:30N 01°15' E 104°03'612.9
2017-Oct-16 21:00N 01°13' E 103°57'5 9.8
2017-Oct-16 20:30N 01°14' E 103°52'2 4.8
2017-Oct-16 20:00N 01°16' E 103°50'0 0.0
2017-Oct-16 19:30N 01°16' E 103°50'0 0.0
2017-Oct-16 18:57N 01°16' E 103°50'0 0.0
2017-Oct-16 18:30N 01°16' E 103°50'0 0.0
2017-Oct-16 18:00N 01°16' E 103°50'0 0.0
2017-Oct-16 17:30N 01°16' E 103°50'0 0.0
2017-Oct-16 17:00N 01°16' E 103°50'0 0.0
2017-Oct-16 16:30N 01°16' E 103°50'0 0.0
2017-Oct-16 16:00N 01°16' E 103°50'0 0.0
2017-Oct-16 15:30N 01°16' E 103°50'0 0.0
2017-Oct-16 15:00N 01°16' E 103°50'0 0.0
2017-Oct-16 14:00N 01°16' E 103°50'0 0.0
2017-Oct-16 13:30N 01°16' E 103°50'0 0.0
2017-Oct-16 13:00N 01°16' E 103°50'0 0.0
2017-Oct-16 12:30N 01°16' E 103°50'0 0.0
2017-Oct-16 12:00N 01°16' E 103°50'0 0.0
2017-Oct-16 11:30N 01°16' E 103°50'0 0.0
2017-Oct-16 11:00N 01°16' E 103°50'0 0.0
2017-Oct-16 10:30N 01°16' E 103°50'1 1.2
2017-Oct-16 10:00N 01°16' E 103°51'1 2.4
2017-Oct-16 09:30N 01°15' E 103°52'3 5.8
2017-Oct-16 09:00N 01°13' E 103°53'2 4.2
2017-Oct-16 08:30N 01°11' E 103°51'510.6
2017-Oct-16 08:00N 01°09' E 103°46'612.0
2017-Oct-16 07:30N 01°04' E 103°42'510.8
2017-Oct-16 07:00N 01°04' E 103°37'611.8
2017-Oct-16 06:30N 01°08' E 103°32'4 7.6
2017-Oct-16 06:00N 01°10' E 103°29'0 0.5
2017-Oct-16 05:30N 01°10' E 103°29'1 1.5
2017-Oct-16 05:00N 01°11' E 103°28'4 7.7
2017-Oct-16 04:30N 01°12' E 103°25'  

Dump ship's entire track history